Time;durP1;ratioP1;P1;durP2;ratioP2;P2;SDS_P1;SDS_P2;PMS_P1;PMS_P2;Temp;Humidity;BMP_temperature;BMP_pressure;BME280_temperature;BME280_humidity;BME280_pressure;Samples;Min_cycle;Max_cycle;Signal;HPM_P1;HPM_P2
2023/09/06 00:00:18;;;;;;;;;;;24.50;90.80;24.40;99679.00;;;;334683;29;90291;-95
2023/09/06 00:00:34;;;;;;;;;;;24.50;90.80;24.30;99689.00;;;;335252;29;83423;-95
2023/09/06 00:00:49;;;;;;;;;;;24.50;90.80;24.30;99684.00;;;;337630;28;90298;-95
2023/09/06 00:01:04;;;;;;;;;;;24.50;90.70;24.40;99679.00;;;;336566;28;82494;-95
2023/09/06 00:01:16;;;;;;;;;;;24.50;90.70;24.50;99685.00;;;;338728;28;91754;-95
2023/09/06 00:01:31;;;;;;;;;;;24.50;90.80;24.50;99680.00;;;;338002;28;82524;-96
2023/09/06 00:01:43;;;;;;;;;;;24.50;90.80;24.50;99683.00;;;;337373;28;92418;-96
2023/09/06 00:01:54;;;;;;;;;;;24.50;90.80;24.50;99682.00;;;;339199;28;82413;-96
2023/09/06 00:02:07;;;;;;;;;;;24.50;90.90;24.50;99686.00;;;;337527;28;89194;-96
2023/09/06 00:02:19;;;;;;;;;;;24.50;90.80;24.50;99679.00;;;;335194;28;83478;-95
2023/09/06 00:02:32;;;;;;;;;;;24.50;90.80;24.40;99682.00;;;;338749;28;90465;-95
2023/09/06 00:02:44;;;;;;;;;;;24.50;90.90;24.50;99688.00;;;;337853;28;83433;-94
2023/09/06 00:02:57;;;;;;;;;;;24.50;90.80;24.50;99685.00;;;;343135;28;90193;-95
2023/09/06 00:03:10;;;;;;;;;;;24.50;91.00;24.40;99684.00;;;;344657;28;83537;-95
2023/09/06 00:03:23;;;;;;;;;;;24.50;91.00;24.40;99685.00;;;;338716;28;90902;-95
2023/09/06 00:03:39;;;;;;;;;;;24.50;90.90;24.40;99689.00;;;;339402;28;82480;-96
2023/09/06 00:03:54;;;;;;;;;;;24.50;90.90;24.50;99685.00;;;;338442;28;91631;-95
2023/09/06 00:04:07;;;;;;;;;;;24.50;90.80;24.50;99682.00;;;;336564;28;82554;-95
2023/09/06 00:04:19;;;;;;;;;;;24.50;90.90;24.40;99683.00;;;;336024;28;90840;-96
2023/09/06 00:04:31;;;;;;;;;;;24.50;91.00;24.40;99691.00;;;;337741;28;83113;-96
2023/09/06 00:04:43;;;;;;;;;;;24.50;91.10;24.40;99691.00;;;;337349;28;90581;-95
2023/09/06 00:04:56;;;;;;;;;;;24.50;91.10;24.30;99684.00;;;;343487;28;82342;-95
2023/09/06 00:05:08;;;;;;;;;;;24.50;91.00;24.40;99682.00;;;;336117;28;91306;-95
2023/09/06 00:05:20;;;;;;;;;;;24.40;90.90;24.40;99686.00;;;;336515;28;83428;-95
2023/09/06 00:05:32;;;;;;;;;;;24.40;90.90;24.40;99690.00;;;;337487;28;90563;-96
2023/09/06 00:05:43;;;;;;;;;;;24.40;91.00;24.30;99683.00;;;;337828;28;82558;-96
2023/09/06 00:05:58;;;;;;;;;;;24.40;91.00;24.30;99687.00;;;;338706;28;92771;-96
2023/09/06 00:06:11;;;;;;;;;;;24.40;91.00;24.40;99684.00;;;;337986;28;82195;-94
2023/09/06 00:06:23;;;;;;;;;;;24.40;91.00;24.50;99688.00;;;;336073;28;91849;-95
2023/09/06 00:06:34;;;;;;;;;;;24.50;90.90;24.60;99685.00;;;;337878;28;82519;-95
2023/09/06 00:06:46;;;;;;;;;;;24.40;90.90;24.60;99688.00;;;;337418;28;91390;-96
2023/09/06 00:06:59;;;;;;;;;;;24.50;90.90;24.50;99697.00;;;;337843;28;82581;-94
2023/09/06 00:07:11;;;;;;;;;;;24.50;90.80;24.50;99690.00;;;;337443;28;91494;-95
2023/09/06 00:07:23;;;;;;;;;;;24.50;90.80;24.50;99688.00;;;;340487;28;83523;-95
2023/09/06 00:07:35;;;;;;;;;;;24.50;90.80;24.50;99691.00;;;;337452;28;91226;-95
2023/09/06 00:07:47;;;;;;;;;;;24.50;90.90;24.50;99690.00;;;;339068;28;83431;-96
2023/09/06 00:07:58;;;;;;;;;;;24.50;90.80;24.50;99685.00;;;;338584;28;93007;-95
2023/09/06 00:08:12;;;;;;;;;;;24.40;90.90;24.40;99692.00;;;;339173;28;83410;-96
2023/09/06 00:08:24;;;;;;;;;;;24.40;91.00;24.40;99691.00;;;;338598;28;91456;-95
2023/09/06 00:08:36;;;;;;;;;;;24.40;91.00;24.50;99682.00;;;;339174;28;83498;-96
2023/09/06 00:08:48;;;;;;;;;;;24.40;90.80;24.60;99689.00;;;;337430;28;91840;-96
2023/09/06 00:09:00;;;;;;;;;;;24.40;90.80;24.70;99690.00;;;;337790;28;82449;-96
2023/09/06 00:09:12;;;;;;;;;;;24.50;90.90;24.60;99684.00;;;;338771;28;91755;-96
2023/09/06 00:09:24;;;;;;;;;;;24.50;90.90;24.70;99688.00;;;;337849;28;83367;-95
2023/09/06 00:09:36;;;;;;;;;;;24.50;90.90;24.70;99683.00;;;;336154;28;91320;-96
2023/09/06 00:09:48;;;;;;;;;;;24.50;90.90;24.60;99685.00;;;;339185;28;83364;-94
2023/09/06 00:10:00;;;;;;;;;;;24.50;91.00;24.50;99689.00;;;;344282;28;91884;-95
2023/09/06 00:10:12;;;;;;;;;;;24.50;90.90;24.50;99689.00;;;;343511;28;82267;-96
2023/09/06 00:10:24;;;;;;;;;;;24.50;90.90;24.40;99695.00;;;;343028;28;87783;-96
2023/09/06 00:10:40;;;;;;;;;;;24.50;90.90;24.30;99688.00;;;;344852;28;83390;-96
2023/09/06 00:10:52;;;;;;;;;;;24.50;90.90;24.30;99689.00;;;;338912;28;90082;-95
2023/09/06 00:11:06;;;;;;;;;;;24.50;91.00;24.30;99690.00;;;;339152;28;82502;-95
2023/09/06 00:11:18;;;;;;;;;;;24.50;91.00;24.30;99683.00;;;;338855;28;89477;-96
2023/09/06 00:11:30;;;;;;;;;;;24.40;91.00;24.30;99687.00;;;;344875;28;82408;-95
2023/09/06 00:11:42;;;;;;;;;;;24.40;90.90;24.40;99687.00;;;;344323;28;90726;-95
2023/09/06 00:11:54;;;;;;;;;;;24.40;91.00;24.40;99686.00;;;;337852;28;82472;-96
2023/09/06 00:12:06;;;;;;;;;;;24.40;91.00;24.30;99682.00;;;;337473;28;92536;-95
2023/09/06 00:12:20;;;;;;;;;;;24.40;91.00;24.30;99682.00;;;;336557;28;82481;-95
2023/09/06 00:12:32;;;;;;;;;;;24.40;91.10;24.30;99687.00;;;;337463;28;90632;-95
2023/09/06 00:12:47;;;;;;;;;;;24.40;91.00;24.30;99690.00;;;;339276;28;83438;-96
2023/09/06 00:12:59;;;;;;;;;;;24.40;91.00;24.20;99684.00;;;;336217;28;91198;-95
2023/09/06 00:13:11;;;;;;;;;;;24.40;91.10;24.20;99689.00;;;;336627;28;83272;-95
2023/09/06 00:13:23;;;;;;;;;;;24.40;91.10;24.30;99689.00;;;;336155;28;91415;-95
2023/09/06 00:13:36;;;;;;;;;;;24.40;91.10;24.30;99688.00;;;;336652;28;83406;-94
2023/09/06 00:13:47;;;;;;;;;;;24.40;91.00;24.30;99684.00;;;;336144;28;91250;-95
2023/09/06 00:14:03;;;;;;;;;;;24.40;91.10;24.30;99688.00;;;;336530;28;83504;-95
2023/09/06 00:14:15;;;;;;;;;;;24.40;91.10;24.20;99689.00;;;;336180;28;91581;-96
2023/09/06 00:14:29;;;;;;;;;;;24.30;91.10;24.20;99689.00;;;;339096;28;82478;-96
2023/09/06 00:14:41;;;;;;;;;;;24.30;91.10;24.20;99688.00;;;;337522;28;91201;-96
2023/09/06 00:14:54;;;;;;;;;;;24.30;91.10;24.20;99687.00;;;;339311;28;82426;-95
2023/09/06 00:15:08;;;;;;;;;;;24.30;91.20;24.30;99690.00;;;;338831;28;87998;-95
2023/09/06 00:15:20;;;;;;;;;;;24.30;91.20;24.20;99686.00;;;;336576;28;82536;-95
2023/09/06 00:15:32;;;;;;;;;;;24.30;91.20;24.30;99684.00;;;;337532;28;91734;-95
2023/09/06 00:15:44;;;;;;;;;;;24.30;91.10;24.30;99687.00;;;;339514;28;82555;-96
2023/09/06 00:15:55;;;;;;;;;;;24.30;91.20;24.30;99687.00;;;;339330;28;90386;-96
2023/09/06 00:16:07;;;;;;;;;;;24.30;91.20;24.30;99680.00;;;;338408;28;82552;-95
2023/09/06 00:16:19;;;;;;;;;;;24.30;91.10;24.20;99680.00;;;;340534;28;92417;-96
2023/09/06 00:16:31;;;;;;;;;;;24.30;91.10;24.20;99690.00;;;;338265;28;83254;-96
2023/09/06 00:16:46;;;;;;;;;;;24.30;91.20;24.30;99674.00;;;;339268;28;90498;-95
2023/09/06 00:16:58;;;;;;;;;;;24.30;91.10;24.40;99680.00;;;;341373;28;83468;-95
2023/09/06 00:19:24;;;;;;;;;;;24.20;91.40;24.30;99684.00;;;;250639;28;92353;-89
2023/09/06 00:19:36;;;;;;;;;;;24.20;91.30;24.30;99680.00;;;;349597;27;82518;-95
2023/09/06 00:19:48;;;;;;;;;;;24.20;91.20;24.20;99676.00;;;;344569;28;90228;-95
2023/09/06 00:19:59;;;;;;;;;;;24.20;91.30;24.20;99683.00;;;;342648;28;82532;-96
2023/09/06 00:20:30;;;;;;;;;;;24.20;91.40;24.20;99681.00;;;;343547;28;91500;-95
2023/09/06 00:20:43;;;;;;;;;;;24.20;91.40;24.10;99688.00;;;;346669;28;82543;-95
2023/09/06 00:20:57;;;;;;;;;;;24.20;91.50;24.00;99682.00;;;;344532;28;90674;-95
2023/09/06 00:23:42;;;;;;;;;;;24.20;91.40;24.10;99683.00;;;;340114;28;85413;-95
2023/09/06 00:23:54;;;;;;;;;;;24.20;91.50;24.00;99678.00;;;;343946;28;88338;-95
2023/09/06 00:24:12;;;;;;;;;;;24.20;91.50;24.00;99684.00;;;;342019;28;83366;-95
2023/09/06 00:24:23;;;;;;;;;;;24.20;91.50;24.00;99683.00;;;;338793;28;91733;-95
2023/09/06 00:24:35;;;;;;;;;;;24.20;91.40;24.10;99673.00;;;;339344;28;83396;-96
2023/09/06 00:24:47;;;;;;;;;;;24.20;91.30;24.10;99682.00;;;;337568;28;92035;-95
2023/09/06 00:25:00;;;;;;;;;;;24.10;91.30;24.20;99680.00;;;;339346;28;82405;-96
2023/09/06 00:25:12;;;;;;;;;;;24.20;91.50;24.20;99680.00;;;;337666;28;89227;-95
2023/09/06 00:25:25;;;;;;;;;;;24.20;91.50;24.30;99682.00;;;;338108;28;82500;-95
2023/09/06 00:25:37;;;;;;;;;;;24.20;91.50;24.20;99681.00;;;;341611;28;90016;-95
2023/09/06 00:25:49;;;;;;;;;;;24.20;91.60;24.10;99684.00;;;;341918;28;83569;-95
2023/09/06 00:26:02;;;;;;;;;;;24.20;91.60;24.10;99680.00;;;;341608;28;91818;-96
2023/09/06 00:26:14;;;;;;;;;;;24.20;91.60;24.00;99681.00;;;;340759;28;82534;-96
2023/09/06 00:26:26;;;;;;;;;;;24.10;91.60;24.10;99676.00;;;;340220;28;91860;-95
2023/09/06 00:26:41;;;;;;;;;;;24.10;91.50;24.10;99681.00;;;;337878;28;82465;-95
2023/09/06 00:26:57;;;;;;;;;;;24.10;91.60;24.10;99683.00;;;;338227;28;91977;-95
2023/09/06 00:27:09;;;;;;;;;;;24.10;91.60;24.10;99681.00;;;;341825;28;82605;-95
2023/09/06 00:27:21;;;;;;;;;;;24.10;91.50;24.00;99683.00;;;;341627;28;88767;-96
2023/09/06 00:27:33;;;;;;;;;;;24.10;91.40;24.00;99684.00;;;;340575;28;82407;-96
2023/09/06 00:27:45;;;;;;;;;;;24.10;91.60;24.10;99685.00;;;;340164;28;90706;-95
2023/09/06 00:27:59;;;;;;;;;;;24.10;91.50;24.20;99684.00;;;;339277;28;83549;-95
2023/09/06 00:28:12;;;;;;;;;;;24.10;91.40;24.30;99691.00;;;;337620;28;90501;-95
2023/09/06 00:28:24;;;;;;;;;;;24.10;91.40;24.20;99684.00;;;;340567;28;83456;-96
2023/09/06 00:28:38;;;;;;;;;;;24.10;91.40;24.20;99687.00;;;;340301;28;90652;-95
2023/09/06 00:28:50;;;;;;;;;;;24.10;91.40;24.20;99689.00;;;;340753;28;82454;-96
2023/09/06 00:29:04;;;;;;;;;;;24.10;91.40;24.20;99688.00;;;;340231;28;90301;-95
2023/09/06 00:29:15;;;;;;;;;;;24.10;91.40;24.20;99693.00;;;;339357;28;83373;-96
2023/09/06 00:29:27;;;;;;;;;;;24.10;91.40;24.20;99687.00;;;;340247;28;92092;-96
2023/09/06 00:29:41;;;;;;;;;;;24.10;91.80;24.10;99685.00;;;;340671;28;83336;-95
2023/09/06 00:29:53;;;;;;;;;;;24.10;91.60;24.00;99681.00;;;;337645;28;90439;-95
2023/09/06 00:30:07;;;;;;;;;;;24.10;91.60;24.10;99685.00;;;;339357;28;82561;-95
2023/09/06 00:30:19;;;;;;;;;;;24.10;91.60;24.10;99682.00;;;;341516;28;91763;-95
2023/09/06 00:30:31;;;;;;;;;;;24.10;91.70;24.10;99685.00;;;;339440;28;82432;-95
2023/09/06 00:30:46;;;;;;;;;;;24.10;91.60;24.00;99688.00;;;;338918;28;90175;-96
2023/09/06 00:30:58;;;;;;;;;;;24.10;91.60;23.90;99682.00;;;;341935;28;83473;-95
2023/09/06 00:31:10;;;;;;;;;;;24.10;91.60;23.90;99685.00;;;;340031;28;89349;-96
2023/09/06 00:31:23;;;;;;;;;;;24.10;91.60;24.00;99688.00;;;;340728;28;82343;-95
2023/09/06 00:31:35;;;;;;;;;;;24.10;91.60;24.10;99686.00;;;;339964;28;91738;-96
2023/09/06 00:31:47;;;;;;;;;;;24.10;91.50;24.10;99696.00;;;;341949;28;83327;-96
2023/09/06 00:31:59;;;;;;;;;;;24.10;91.50;24.10;99691.00;;;;340354;28;90818;-96
2023/09/06 00:32:11;;;;;;;;;;;24.10;91.50;24.10;99688.00;;;;341968;28;83113;-95
2023/09/06 00:32:23;;;;;;;;;;;24.10;91.50;24.10;99689.00;;;;338839;28;91599;-95
2023/09/06 00:32:35;;;;;;;;;;;24.10;91.50;24.00;99692.00;;;;340823;28;82452;-96
2023/09/06 00:32:47;;;;;;;;;;;24.10;91.60;24.10;99698.00;;;;342859;28;90062;-94
2023/09/06 00:32:59;;;;;;;;;;;24.10;91.60;24.10;99690.00;;;;340564;28;82659;-96
2023/09/06 00:33:12;;;;;;;;;;;24.10;91.70;24.20;99695.00;;;;340335;28;90465;-95
2023/09/06 00:33:26;;;;;;;;;;;24.10;91.50;24.10;99690.00;;;;341924;28;83494;-96
2023/09/06 00:33:38;;;;;;;;;;;24.10;91.70;24.10;99702.00;;;;339954;28;90418;-95
2023/09/06 00:33:50;;;;;;;;;;;24.10;91.80;24.00;99691.00;;;;340571;28;83531;-95
2023/09/06 00:34:03;;;;;;;;;;;24.10;91.80;24.00;99696.00;;;;341506;28;90516;-95
2023/09/06 00:34:15;;;;;;;;;;;24.00;91.70;24.10;99696.00;;;;338004;28;83459;-95
2023/09/06 00:34:27;;;;;;;;;;;24.10;91.70;24.20;99702.00;;;;340195;28;92198;-95
2023/09/06 00:34:39;;;;;;;;;;;24.00;91.60;24.20;99699.00;;;;343343;28;82445;-95
2023/09/06 00:34:50;;;;;;;;;;;24.10;91.60;24.20;99694.00;;;;338815;28;87165;-95
2023/09/06 00:35:03;;;;;;;;;;;24.10;91.60;24.10;99688.00;;;;340723;28;83386;-96
2023/09/06 00:35:18;;;;;;;;;;;24.10;91.60;24.10;99688.00;;;;340449;28;90876;-95
2023/09/06 00:35:30;;;;;;;;;;;24.10;91.70;24.10;99697.00;;;;340756;28;82425;-95
2023/09/06 00:35:43;;;;;;;;;;;24.10;91.60;24.00;99697.00;;;;341465;28;92553;-95
2023/09/06 00:35:55;;;;;;;;;;;24.10;91.70;24.00;99699.00;;;;339463;28;82472;-95
2023/09/06 00:36:07;;;;;;;;;;;24.10;91.70;24.00;99698.00;;;;341603;28;91802;-95
2023/09/06 00:36:19;;;;;;;;;;;24.10;91.60;24.10;99696.00;;;;336642;28;83373;-95
2023/09/06 00:36:32;;;;;;;;;;;24.10;91.60;24.10;99700.00;;;;336399;28;90594;-95
2023/09/06 00:36:45;;;;;;;;;;;24.10;91.60;24.10;99695.00;;;;339218;28;82712;-96
2023/09/06 00:36:57;;;;;;;;;;;24.10;91.70;24.10;99697.00;;;;338905;28;92012;-95
2023/09/06 00:37:09;;;;;;;;;;;24.10;91.70;24.10;99697.00;;;;343493;28;82600;-95
2023/09/06 00:37:22;;;;;;;;;;;24.10;91.70;24.00;99702.00;;;;337658;28;90890;-95
2023/09/06 00:37:35;;;;;;;;;;;24.10;91.70;24.00;99700.00;;;;338007;28;83466;-95
2023/09/06 00:37:47;;;;;;;;;;;24.10;91.70;24.00;99700.00;;;;340177;28;92816;-96
2023/09/06 00:38:06;;;;;;;;;;;24.00;91.70;24.10;99702.00;;;;340667;28;82405;-95
2023/09/06 00:38:18;;;;;;;;;;;24.10;91.60;24.10;99703.00;;;;341677;28;90214;-95
2023/09/06 00:38:32;;;;;;;;;;;24.00;91.60;24.10;99695.00;;;;340519;28;82559;-95
2023/09/06 00:38:44;;;;;;;;;;;24.00;91.60;24.10;99700.00;;;;340125;28;89354;-96
2023/09/06 00:38:59;;;;;;;;;;;24.00;91.60;24.00;99700.00;;;;340682;28;82524;-95
2023/09/06 00:39:10;;;;;;;;;;;24.10;91.80;23.90;99700.00;;;;341644;28;91325;-95
2023/09/06 00:39:23;;;;;;;;;;;24.00;91.90;23.80;99702.00;;;;339498;28;82507;-96
2023/09/06 00:39:35;;;;;;;;;;;24.00;91.90;23.80;99704.00;;;;340012;28;91063;-95
2023/09/06 00:39:48;;;;;;;;;;;24.00;91.90;23.80;99698.00;;;;339390;28;82540;-95
2023/09/06 00:40:00;;;;;;;;;;;24.00;91.90;23.80;99702.00;;;;337687;28;89095;-96
2023/09/06 00:40:17;;;;;;;;;;;24.00;91.80;23.80;99698.00;;;;339564;28;83328;-96
2023/09/06 00:40:29;;;;;;;;;;;24.00;91.80;23.90;99703.00;;;;341654;28;90476;-95
2023/09/06 00:40:42;;;;;;;;;;;24.00;91.90;24.00;99696.00;;;;340028;28;82394;-95
2023/09/06 00:40:54;;;;;;;;;;;24.00;91.80;24.00;99703.00;;;;340349;28;90678;-95
2023/09/06 00:41:06;;;;;;;;;;;24.00;91.90;24.00;99689.00;;;;342046;28;83430;-95
2023/09/06 00:41:17;;;;;;;;;;;24.00;91.80;24.00;99701.00;;;;337661;28;91420;-95
2023/09/06 00:41:29;;;;;;;;;;;24.00;91.70;24.10;99700.00;;;;343411;28;83306;-96
2023/09/06 00:41:41;;;;;;;;;;;24.00;91.70;24.00;99692.00;;;;340138;28;91920;-95
2023/09/06 00:41:53;;;;;;;;;;;24.00;92.00;24.00;99700.00;;;;340694;28;82516;-96
2023/09/06 00:42:06;;;;;;;;;;;24.00;92.00;23.90;99699.00;;;;342856;28;91256;-95
2023/09/06 00:42:18;;;;;;;;;;;24.00;91.90;23.90;99699.00;;;;342038;28;82940;-95
2023/09/06 00:42:30;;;;;;;;;;;24.00;92.00;23.80;99693.00;;;;337615;28;91395;-95
2023/09/06 00:42:42;;;;;;;;;;;24.00;92.00;23.90;99700.00;;;;340689;28;82369;-95
2023/09/06 00:43:01;;;;;;;;;;;24.00;91.90;23.90;99692.00;;;;340237;28;91696;-95
2023/09/06 00:43:13;;;;;;;;;;;24.00;91.90;23.90;99695.00;;;;337958;28;83328;-95
2023/09/06 00:43:25;;;;;;;;;;;23.90;91.90;23.80;99692.00;;;;338943;28;91588;-96
2023/09/06 00:43:38;;;;;;;;;;;24.00;92.00;23.80;99697.00;;;;337897;28;83295;-95
2023/09/06 00:43:50;;;;;;;;;;;23.90;91.90;23.90;99701.00;;;;341367;28;89505;-96
2023/09/06 00:44:03;;;;;;;;;;;23.90;91.90;23.90;99695.00;;;;339489;28;82441;-96
2023/09/06 00:44:15;;;;;;;;;;;23.90;91.90;23.90;99696.00;;;;340282;28;91135;-95
2023/09/06 00:44:27;;;;;;;;;;;23.90;91.90;23.90;99703.00;;;;342076;28;82433;-96
2023/09/06 00:44:40;;;;;;;;;;;23.90;91.90;23.90;99700.00;;;;342996;28;90607;-95
2023/09/06 00:44:52;;;;;;;;;;;23.90;91.90;23.90;99697.00;;;;339406;28;83343;-95
2023/09/06 00:45:05;;;;;;;;;;;23.90;92.00;23.90;99699.00;;;;338972;28;91696;-96
2023/09/06 00:45:21;;;;;;;;;;;23.90;91.90;23.90;99692.00;;;;340715;28;83402;-95
2023/09/06 00:45:33;;;;;;;;;;;23.90;92.00;23.90;99695.00;;;;338896;28;91665;-95
2023/09/06 00:45:47;;;;;;;;;;;23.90;91.90;24.00;99700.00;;;;339226;28;82680;-95
2023/09/06 00:46:06;;;;;;;;;;;23.90;91.90;24.10;99704.00;;;;340238;28;91824;-96
2023/09/06 00:46:19;;;;;;;;;;;23.90;91.80;24.20;99707.00;;;;343372;28;83344;-95
2023/09/06 00:46:32;;;;;;;;;;;23.90;91.90;24.10;99695.00;;;;340266;28;92576;-96
2023/09/06 00:46:45;;;;;;;;;;;24.00;91.90;24.00;99704.00;;;;340726;28;82531;-95
2023/09/06 00:46:59;;;;;;;;;;;24.00;91.90;24.00;99694.00;;;;342611;28;90145;-95
2023/09/06 00:47:12;;;;;;;;;;;23.90;91.90;23.90;99695.00;;;;340887;28;82556;-96
2023/09/06 00:47:24;;;;;;;;;;;23.90;91.90;23.90;99692.00;;;;341716;28;90220;-95
2023/09/06 00:47:36;;;;;;;;;;;23.90;92.00;23.90;99696.00;;;;342099;28;83316;-96
2023/09/06 00:47:51;;;;;;;;;;;23.90;92.00;23.80;99693.00;;;;341663;28;91325;-96
2023/09/06 00:48:05;;;;;;;;;;;23.90;92.00;23.90;99698.00;;;;339380;28;83471;-95
2023/09/06 00:48:21;;;;;;;;;;;23.90;92.00;24.00;99697.00;;;;339033;28;90314;-96
2023/09/06 00:48:34;;;;;;;;;;;23.90;91.90;24.00;99701.00;;;;342217;28;82578;-95
2023/09/06 00:48:50;;;;;;;;;;;23.90;91.90;24.10;99697.00;;;;341532;28;91192;-96
2023/09/06 00:49:02;;;;;;;;;;;23.90;92.00;23.90;99697.00;;;;339125;28;83019;-95
2023/09/06 00:49:14;;;;;;;;;;;23.90;92.10;23.90;99703.00;;;;340366;28;90590;-96
2023/09/06 00:49:26;;;;;;;;;;;24.00;92.10;23.90;99695.00;;;;339502;28;83326;-95
2023/09/06 00:49:38;;;;;;;;;;;23.90;92.00;23.90;99698.00;;;;338936;28;90358;-95
2023/09/06 00:49:50;;;;;;;;;;;23.90;92.00;23.90;99697.00;;;;338143;28;82577;-95
2023/09/06 00:50:02;;;;;;;;;;;23.90;91.90;23.90;99698.00;;;;340353;28;90443;-96
2023/09/06 00:50:14;;;;;;;;;;;23.90;92.00;23.90;99701.00;;;;341168;28;82426;-95
2023/09/06 00:50:26;;;;;;;;;;;23.90;92.00;24.00;99703.00;;;;338029;28;90438;-95
2023/09/06 00:50:38;;;;;;;;;;;23.90;92.00;24.10;99702.00;;;;341243;28;82492;-96
2023/09/06 00:50:51;;;;;;;;;;;23.90;92.00;24.00;99707.00;;;;340724;28;92253;-96
2023/09/06 00:51:03;;;;;;;;;;;23.90;92.00;24.00;99704.00;;;;339723;28;82350;-95
2023/09/06 00:51:16;;;;;;;;;;;23.90;92.00;24.10;99696.00;;;;339517;28;90170;-96
2023/09/06 00:51:28;;;;;;;;;;;23.90;92.00;24.10;99704.00;;;;342520;28;83323;-95
2023/09/06 00:51:42;;;;;;;;;;;23.90;92.00;24.00;99704.00;;;;340765;28;90766;-96
2023/09/06 00:51:54;;;;;;;;;;;23.90;92.10;23.90;99701.00;;;;342609;28;82443;-95
2023/09/06 00:52:06;;;;;;;;;;;23.90;92.10;24.00;99705.00;;;;340823;28;87776;-95
2023/09/06 00:52:18;;;;;;;;;;;23.90;92.10;24.00;99699.00;;;;341157;28;83412;-95
2023/09/06 00:52:30;;;;;;;;;;;23.90;92.10;24.10;99703.00;;;;340725;28;91977;-96
2023/09/06 00:52:42;;;;;;;;;;;23.90;92.00;24.10;99699.00;;;;341118;28;83219;-96
2023/09/06 00:52:54;;;;;;;;;;;23.90;92.00;24.10;99702.00;;;;342080;28;91060;-96
2023/09/06 00:53:06;;;;;;;;;;;23.90;92.00;24.00;99695.00;;;;341096;28;82502;-95
2023/09/06 00:53:19;;;;;;;;;;;23.90;92.10;24.00;99701.00;;;;339438;28;90828;-95
2023/09/06 00:53:31;;;;;;;;;;;23.90;92.20;24.00;99695.00;;;;339784;28;82347;-96
2023/09/06 00:53:43;;;;;;;;;;;23.90;92.20;24.00;99694.00;;;;340695;28;91300;-96
2023/09/06 00:53:55;;;;;;;;;;;23.90;92.10;24.00;99692.00;;;;338562;28;82454;-95
2023/09/06 00:54:07;;;;;;;;;;;23.90;92.10;24.00;99698.00;;;;339352;28;90854;-95
2023/09/06 00:54:19;;;;;;;;;;;23.90;92.00;24.00;99703.00;;;;341206;28;82510;-95
2023/09/06 00:54:31;;;;;;;;;;;23.90;91.90;24.10;99698.00;;;;340772;28;90338;-95
2023/09/06 00:54:43;;;;;;;;;;;23.90;91.90;24.00;99698.00;;;;340708;28;83492;-96
2023/09/06 00:54:55;;;;;;;;;;;23.90;92.00;24.00;99702.00;;;;341356;28;90789;-95
2023/09/06 00:55:08;;;;;;;;;;;23.90;91.90;24.00;99705.00;;;;340669;28;83438;-96
2023/09/06 00:55:20;;;;;;;;;;;23.90;92.00;24.00;99703.00;;;;338980;28;90615;-95
2023/09/06 00:55:37;;;;;;;;;;;23.90;92.10;24.00;99707.00;;;;340712;28;83338;-96
2023/09/06 00:55:49;;;;;;;;;;;23.90;92.10;24.00;99707.00;;;;338869;28;89449;-95
2023/09/06 00:56:03;;;;;;;;;;;23.90;92.00;24.00;99707.00;;;;340658;28;82492;-95
2023/09/06 00:56:17;;;;;;;;;;;23.90;92.00;24.00;99697.00;;;;340294;28;89135;-95
2023/09/06 00:56:29;;;;;;;;;;;23.90;92.00;24.00;99701.00;;;;339392;28;83157;-96
2023/09/06 00:56:41;;;;;;;;;;;23.90;91.90;23.90;99703.00;;;;341587;28;91840;-96
2023/09/06 00:56:53;;;;;;;;;;;23.90;92.00;23.90;99699.00;;;;339064;28;82520;-96
2023/09/06 00:57:05;;;;;;;;;;;23.90;92.00;23.80;99699.00;;;;340084;28;92956;-95
2023/09/06 00:57:17;;;;;;;;;;;23.90;92.10;23.80;99703.00;;;;340649;28;82529;-96
2023/09/06 00:57:29;;;;;;;;;;;23.80;92.20;23.80;99702.00;;;;339090;28;91008;-96
2023/09/06 00:57:41;;;;;;;;;;;23.80;92.10;23.80;99702.00;;;;341946;28;82486;-96
2023/09/06 00:57:53;;;;;;;;;;;23.80;92.10;23.80;99707.00;;;;338960;28;90282;-95
2023/09/06 00:58:05;;;;;;;;;;;23.80;92.10;23.90;99705.00;;;;342055;28;82315;-96
2023/09/06 00:58:18;;;;;;;;;;;23.80;92.00;23.90;99708.00;;;;340240;28;88042;-96
2023/09/06 00:58:30;;;;;;;;;;;23.80;92.00;24.00;99699.00;;;;339393;28;83226;-95
2023/09/06 00:58:42;;;;;;;;;;;23.80;92.00;24.10;99703.00;;;;340246;28;92016;-95
2023/09/06 00:58:54;;;;;;;;;;;23.90;92.10;24.00;99703.00;;;;341979;28;83359;-96
2023/09/06 00:59:10;;;;;;;;;;;23.80;92.00;24.00;99707.00;;;;340166;28;90716;-96
2023/09/06 00:59:22;;;;;;;;;;;23.90;92.10;24.00;99702.00;;;;340466;28;83056;-96
2023/09/06 00:59:34;;;;;;;;;;;23.90;92.00;24.00;99702.00;;;;337665;28;90986;-95
2023/09/06 00:59:47;;;;;;;;;;;23.90;92.00;24.00;99704.00;;;;339298;28;82595;-95
2023/09/06 00:59:59;;;;;;;;;;;23.90;92.00;24.00;99703.00;;;;341684;28;89635;-96
2023/09/06 01:00:16;;;;;;;;;;;23.90;91.90;24.00;99699.00;;;;340749;28;83557;-95
2023/09/06 01:00:28;;;;;;;;;;;23.90;92.00;24.00;99703.00;;;;337668;28;91526;-95
2023/09/06 01:00:40;;;;;;;;;;;23.90;92.10;23.90;99711.00;;;;337999;28;82381;-96
2023/09/06 01:00:52;;;;;;;;;;;23.90;92.10;23.90;99707.00;;;;341755;28;90000;-95
2023/09/06 01:01:04;;;;;;;;;;;23.90;92.30;23.90;99705.00;;;;340599;28;83442;-95
2023/09/06 01:01:16;;;;;;;;;;;23.90;92.30;23.90;99702.00;;;;338876;28;92387;-95
2023/09/06 01:01:28;;;;;;;;;;;23.90;92.20;23.80;99698.00;;;;340632;28;82548;-95
2023/09/06 01:01:41;;;;;;;;;;;23.90;92.20;23.90;99708.00;;;;340208;28;91913;-96
2023/09/06 01:01:53;;;;;;;;;;;23.90;92.30;23.80;99706.00;;;;339397;28;82503;-96
2023/09/06 01:02:05;;;;;;;;;;;23.80;92.30;23.80;99709.00;;;;338661;28;90730;-94
2023/09/06 01:02:18;;;;;;;;;;;23.80;92.20;23.80;99710.00;;;;342041;28;82542;-95
2023/09/06 01:02:30;;;;;;;;;;;23.90;92.20;23.80;99710.00;;;;341222;28;89382;-96
2023/09/06 01:02:42;;;;;;;;;;;23.90;92.20;23.80;99710.00;;;;337945;28;82495;-96
2023/09/06 01:02:55;;;;;;;;;;;23.80;92.30;23.70;99715.00;;;;340219;28;90939;-96
2023/09/06 01:03:07;;;;;;;;;;;23.80;92.40;23.70;99703.00;;;;341908;28;83425;-95
2023/09/06 01:03:19;;;;;;;;;;;23.80;92.30;23.80;99714.00;;;;341555;28;90889;-95
2023/09/06 01:03:32;;;;;;;;;;;23.80;92.20;23.80;99712.00;;;;340684;28;82524;-95
2023/09/06 01:03:45;;;;;;;;;;;23.80;92.30;23.90;99704.00;;;;340167;28;91639;-95
2023/09/06 01:03:57;;;;;;;;;;;23.80;92.20;23.80;99708.00;;;;341883;28;83529;-95
2023/09/06 01:04:09;;;;;;;;;;;23.80;92.40;23.70;99703.00;;;;340269;28;91071;-95
2023/09/06 01:04:21;;;;;;;;;;;23.80;92.50;23.60;99709.00;;;;339377;28;82519;-96
2023/09/06 01:04:33;;;;;;;;;;;23.80;92.50;23.70;99711.00;;;;338970;28;91780;-96
2023/09/06 01:04:45;;;;;;;;;;;23.80;92.50;23.80;99710.00;;;;340498;28;82399;-95
2023/09/06 01:04:57;;;;;;;;;;;23.70;92.30;23.90;99701.00;;;;338733;28;89448;-95
2023/09/06 01:05:09;;;;;;;;;;;23.80;92.30;24.00;99703.00;;;;340700;28;82534;-95
2023/09/06 01:05:22;;;;;;;;;;;23.80;92.30;23.90;99703.00;;;;338870;28;92129;-95
2023/09/06 01:05:44;;;;;;;;;;;23.80;92.40;23.90;99711.00;;;;340536;28;82569;-96
2023/09/06 01:06:09;;;;;;;;;;;23.80;92.40;23.90;99707.00;;;;338896;28;90782;-95
2023/09/06 01:06:23;;;;;;;;;;;23.80;92.30;23.80;99705.00;;;;339445;28;83507;-95
2023/09/06 01:06:35;;;;;;;;;;;23.80;92.50;23.80;99712.00;;;;340356;28;91534;-95
2023/09/06 01:06:47;;;;;;;;;;;23.80;92.40;23.80;99709.00;;;;340715;28;83407;-95
2023/09/06 01:06:59;;;;;;;;;;;23.80;92.40;23.80;99709.00;;;;341842;28;90844;-95
2023/09/06 01:07:11;;;;;;;;;;;23.80;92.50;23.80;99709.00;;;;339536;28;83279;-96
2023/09/06 01:07:26;;;;;;;;;;;23.70;92.40;23.80;99707.00;;;;340404;28;90717;-95
2023/09/06 01:07:38;;;;;;;;;;;23.80;92.30;23.70;99708.00;;;;342252;28;82550;-95
2023/09/06 01:07:51;;;;;;;;;;;23.70;92.40;23.70;99709.00;;;;339145;28;91730;-95
2023/09/06 01:08:04;;;;;;;;;;;23.70;92.50;23.70;99712.00;;;;340646;28;82562;-96
2023/09/06 01:08:20;;;;;;;;;;;23.70;92.50;23.70;99705.00;;;;339160;28;91744;-96